createdAt,value
2023-02-12T00:00:52.900Z,7.62
2023-02-12T00:03:44.005Z,7.49
2023-02-12T00:06:26.939Z,7.40
2023-02-12T00:09:09.597Z,7.65
2023-02-12T00:12:00.607Z,7.55
2023-02-12T00:14:39.953Z,7.49
2023-02-12T00:17:30.776Z,7.64
2023-02-12T00:20:10.354Z,7.80
2023-02-12T00:23:01.638Z,7.61
2023-02-12T00:25:42.585Z,7.35
2023-02-12T00:28:33.756Z,7.13
2023-02-12T00:31:34.671Z,7.35
2023-02-12T00:34:17.416Z,7.14
2023-02-12T00:36:59.630Z,7.07
2023-02-12T00:39:41.972Z,6.73
2023-02-12T00:42:24.609Z,6.97
2023-02-12T00:45:06.940Z,6.73
2023-02-12T00:48:01.471Z,6.93
2023-02-12T00:50:56.552Z,7.23
2023-02-12T00:53:38.797Z,7.18
2023-02-12T00:56:20.555Z,7.16
2023-02-12T00:59:02.647Z,7.16
2023-02-12T01:01:56.712Z,7.10
2023-02-12T01:04:38.680Z,7.27
2023-02-12T01:07:29.699Z,7.06
2023-02-12T01:10:11.746Z,7.00
2023-02-12T01:13:05.694Z,7.03
2023-02-12T01:15:44.825Z,6.95
2023-02-12T01:18:26.584Z,6.97
2023-02-12T01:21:14.456Z,6.84
2023-02-12T01:24:06.066Z,7.04
2023-02-12T01:26:45.823Z,6.97
2023-02-12T01:29:37.178Z,7.07
2023-02-12T01:32:19.780Z,6.84
2023-02-12T01:35:01.619Z,6.82
2023-02-12T01:37:43.856Z,7.18
2023-02-12T01:40:25.588Z,6.79
2023-02-12T01:43:12.006Z,7.09
2023-02-12T01:46:08.384Z,7.13
2023-02-12T01:48:48.178Z,6.96
2023-02-12T01:51:40.056Z,6.81
2023-02-12T01:54:21.058Z,6.89
2023-02-12T02:00:55.806Z,6.54
2023-02-12T02:03:52.945Z,6.76
2023-02-12T02:06:36.062Z,6.81
2023-02-12T02:09:30.258Z,6.66
2023-02-12T02:12:37.561Z,6.89
2023-02-12T02:15:19.618Z,6.46
2023-02-12T02:18:09.195Z,6.92
2023-02-12T02:21:18.504Z,6.88
2023-02-12T02:24:13.340Z,6.87
2023-02-12T02:27:16.062Z,6.84
2023-02-12T02:29:55.630Z,7.09
2023-02-12T02:33:04.054Z,6.89
2023-02-12T02:35:52.726Z,7.16
2023-02-12T02:39:16.401Z,7.05
2023-02-12T02:42:11.576Z,7.08
2023-02-12T02:44:56.171Z,7.00
2023-02-12T02:47:54.321Z,6.70
2023-02-12T02:50:37.018Z,6.86
2023-02-12T02:53:10.966Z,7.01
2023-02-12T02:55:49.082Z,7.05
2023-02-12T02:58:27.568Z,6.54
2023-02-12T03:01:02.546Z,6.66
2023-02-12T03:04:04.359Z,6.11
2023-02-12T03:06:40.606Z,6.37
2023-02-12T03:09:34.946Z,6.09
2023-02-12T03:12:23.496Z,6.52
2023-02-12T03:15:23.551Z,6.29
2023-02-12T03:17:51.784Z,6.40
2023-02-12T03:20:49.513Z,6.64
2023-02-12T03:23:37.869Z,6.97
2023-02-12T03:26:39.681Z,6.76
2023-02-12T03:29:18.957Z,6.72
2023-02-12T03:32:44.829Z,6.62
2023-02-12T03:35:52.767Z,6.73
2023-02-12T03:38:51.604Z,6.79
2023-02-12T03:42:05.966Z,6.61
2023-02-12T03:44:53.311Z,7.00
2023-02-12T03:47:46.709Z,6.62
2023-02-12T03:50:55.316Z,6.55
2023-02-12T03:53:37.681Z,6.75
2023-02-12T03:56:41.819Z,6.46
2023-02-12T03:59:24.896Z,6.14
2023-02-12T04:02:17.343Z,6.27
2023-02-12T04:05:24.566Z,6.39
2023-02-12T04:08:07.004Z,6.30
2023-02-12T04:11:13.917Z,6.32
2023-02-12T04:14:08.835Z,6.22
2023-02-12T04:17:18.337Z,6.15
2023-02-12T04:20:38.300Z,6.40
2023-02-12T04:23:48.353Z,6.31
2023-02-12T04:26:37.756Z,6.24
2023-02-12T04:29:50.521Z,6.20
2023-02-12T04:32:41.227Z,6.17
2023-02-12T04:35:41.030Z,5.70
2023-02-12T04:38:27.100Z,6.31
2023-02-12T04:41:28.900Z,6.46
2023-02-12T04:44:16.013Z,6.52
2023-02-12T04:46:58.889Z,6.56
2023-02-12T04:49:46.744Z,6.40
2023-02-12T04:52:28.780Z,6.34
2023-02-12T04:55:22.467Z,6.27
2023-02-12T04:58:18.477Z,6.20
2023-02-12T05:01:10.578Z,6.19
2023-02-12T05:03:49.787Z,6.14
2023-02-12T05:06:40.965Z,6.12
2023-02-12T05:09:21.265Z,6.37
2023-02-12T05:12:03.597Z,6.57
2023-02-12T05:14:45.598Z,6.66
2023-02-12T05:17:27.639Z,6.45
2023-02-12T05:20:21.358Z,6.29
2023-02-12T05:23:03.691Z,6.22
2023-02-12T05:25:55.183Z,6.32
2023-02-12T05:28:23.449Z,6.25
2023-02-12T05:30:51.482Z,6.50
2023-02-12T05:33:19.235Z,6.47
2023-02-12T05:35:47.000Z,6.37
2023-02-12T05:38:34.903Z,6.28
2023-02-12T05:41:09.221Z,6.35
2023-02-12T05:43:37.225Z,6.47
2023-02-12T05:46:06.623Z,6.00
2023-02-12T05:48:34.927Z,6.37
2023-02-12T05:51:39.305Z,6.31
2023-02-12T05:54:20.823Z,6.15
2023-02-12T05:56:50.729Z,6.06
2023-02-12T05:59:22.046Z,5.79
2023-02-12T06:02:13.539Z,5.97
2023-02-12T06:05:04.794Z,6.13
2023-02-12T06:07:43.860Z,5.78
2023-02-12T06:10:35.712Z,6.09
2023-02-12T06:17:38.256Z,6.53
2023-02-12T06:20:20.490Z,6.40
2023-02-12T06:23:14.356Z,6.29
2023-02-12T06:25:57.735Z,6.53
2023-02-12T06:28:39.580Z,6.46
2023-02-12T06:31:27.485Z,6.45
2023-02-12T06:34:18.670Z,6.07
2023-02-12T06:36:57.714Z,6.36
2023-02-12T06:39:49.570Z,6.29
2023-02-12T06:42:33.107Z,6.19
2023-02-12T06:45:22.979Z,6.31
2023-02-12T06:48:05.845Z,6.25
2023-02-12T06:50:56.868Z,6.09
2023-02-12T06:53:36.299Z,6.44
2023-02-12T06:56:27.568Z,6.14
2023-02-12T06:59:06.763Z,6.58
2023-02-12T07:01:49.109Z,6.76
2023-02-12T07:04:17.559Z,6.88
2023-02-12T07:07:11.436Z,6.57
2023-02-12T07:09:50.815Z,7.14
2023-02-12T07:12:18.867Z,7.20
2023-02-12T07:14:46.849Z,7.12
2023-02-12T07:17:14.437Z,7.28
2023-02-12T07:19:42.636Z,7.61
2023-02-12T07:22:10.105Z,7.88
2023-02-12T07:24:39.262Z,7.88
2023-02-12T07:27:08.397Z,7.96
2023-02-12T07:29:40.438Z,8.05
2023-02-12T07:32:19.383Z,7.94
2023-02-12T07:35:07.478Z,7.74
2023-02-12T07:38:00.083Z,8.07
2023-02-12T07:40:32.951Z,8.45
2023-02-12T07:43:06.912Z,8.39
2023-02-12T07:45:36.354Z,8.34
2023-02-12T07:48:07.167Z,8.59
2023-02-12T07:51:05.094Z,8.50
2023-02-12T07:53:34.486Z,8.67
2023-02-12T07:56:17.545Z,8.96
2023-02-12T07:58:54.265Z,8.87
2023-02-12T08:01:28.715Z,8.66
2023-02-12T08:04:04.284Z,8.70
2023-02-12T08:06:35.957Z,9.19
2023-02-12T08:09:27.802Z,9.40
2023-02-12T08:11:59.112Z,9.15
2023-02-12T08:14:29.663Z,9.26
2023-02-12T08:17:01.192Z,9.79
2023-02-12T08:19:28.961Z,9.32
2023-02-12T08:22:06.576Z,9.39
2023-02-12T08:24:34.204Z,9.55
2023-02-12T08:27:02.449Z,9.08
2023-02-12T08:29:41.236Z,9.26
2023-02-12T08:32:22.648Z,9.94
2023-02-12T08:34:55.815Z,9.83
2023-02-12T08:37:26.827Z,10.02
2023-02-12T08:40:00.005Z,9.60
2023-02-12T08:42:28.001Z,9.95
2023-02-12T08:44:55.911Z,9.78
2023-02-12T08:47:23.439Z,9.91
2023-02-12T08:49:51.170Z,10.20
2023-02-12T08:52:19.714Z,10.67
2023-02-12T08:54:47.219Z,10.67
2023-02-12T08:57:14.856Z,10.76
2023-02-12T08:59:42.735Z,10.85
2023-02-12T09:02:11.249Z,10.52
2023-02-12T09:04:40.249Z,10.82
2023-02-12T09:07:10.718Z,10.80
2023-02-12T09:09:38.594Z,10.93
2023-02-12T09:12:06.148Z,10.80
2023-02-12T09:14:34.239Z,10.77
2023-02-12T09:17:01.942Z,11.05
2023-02-12T09:19:29.594Z,10.93
2023-02-12T09:21:57.680Z,11.28
2023-02-12T09:24:27.854Z,11.39
2023-02-12T09:26:55.947Z,11.46
2023-02-12T09:29:24.037Z,11.29
2023-02-12T09:31:51.867Z,11.80
2023-02-12T09:34:20.980Z,11.87
2023-02-12T09:36:49.066Z,12.07
2023-02-12T09:39:16.540Z,11.71
2023-02-12T09:42:02.828Z,11.67
2023-02-12T09:44:49.056Z,11.62
2023-02-12T09:47:31.286Z,11.51
2023-02-12T09:50:18.054Z,12.26
2023-02-12T09:52:45.707Z,12.24
2023-02-12T09:55:18.280Z,12.09
2023-02-12T09:57:46.363Z,12.28
2023-02-12T10:00:20.457Z,12.12
2023-02-12T10:02:52.179Z,12.44
2023-02-12T10:05:23.830Z,12.46
2023-02-12T10:08:14.683Z,12.97
2023-02-12T10:10:52.252Z,12.86
2023-02-12T10:13:36.724Z,13.52
2023-02-12T10:16:38.529Z,13.61
2023-02-12T10:19:20.094Z,13.58
2023-02-12T10:22:04.045Z,12.93
2023-02-12T10:25:12.538Z,12.57
2023-02-12T10:27:45.286Z,13.61
2023-02-12T10:30:20.551Z,13.15
2023-02-12T10:32:51.981Z,13.43
2023-02-12T10:35:21.636Z,13.80
2023-02-12T10:38:05.249Z,13.84
2023-02-12T10:40:34.200Z,13.71
2023-02-12T10:43:02.586Z,13.49
2023-02-12T10:45:39.835Z,13.00
2023-02-12T10:48:20.736Z,12.97
2023-02-12T10:51:00.481Z,12.92
2023-02-12T10:53:42.915Z,12.58
2023-02-12T10:56:20.442Z,12.98
2023-02-12T10:58:57.193Z,13.15
2023-02-12T11:01:28.892Z,13.47
2023-02-12T11:04:00.360Z,13.53
2023-02-12T11:06:30.820Z,13.30
2023-02-12T11:08:59.720Z,12.89
2023-02-12T11:11:32.122Z,13.49
2023-02-12T11:14:03.646Z,13.38
2023-02-12T11:16:32.959Z,12.89
2023-02-12T11:19:24.528Z,12.75
2023-02-12T11:21:52.708Z,12.97
2023-02-12T11:24:21.723Z,12.64
2023-02-12T11:26:49.646Z,13.45
2023-02-12T11:29:24.595Z,13.15
2023-02-12T11:32:08.939Z,13.29
2023-02-12T11:34:37.079Z,13.65
2023-02-12T11:37:14.678Z,13.41
2023-02-12T11:39:46.877Z,13.28
2023-02-12T11:42:20.478Z,13.33
2023-02-12T11:44:51.495Z,13.19
2023-02-12T11:47:30.803Z,12.77
2023-02-12T11:50:00.551Z,13.02
2023-02-12T11:52:30.058Z,13.21
2023-02-12T11:55:24.759Z,13.14
2023-02-12T11:57:55.129Z,12.99
2023-02-12T12:00:37.147Z,12.76
2023-02-12T12:03:05.044Z,13.36
2023-02-12T12:05:37.386Z,13.05
2023-02-12T12:08:16.758Z,13.19
2023-02-12T12:10:48.758Z,12.84
2023-02-12T12:13:18.381Z,13.01
2023-02-12T12:16:07.502Z,13.37
2023-02-12T12:19:07.671Z,13.33
2023-02-12T12:21:54.190Z,13.52
2023-02-12T12:24:28.733Z,13.35
2023-02-12T12:27:04.824Z,13.11
2023-02-12T12:29:46.246Z,13.00
2023-02-12T12:32:16.023Z,12.83
2023-02-12T12:34:44.420Z,12.92
2023-02-12T12:37:26.013Z,13.04
2023-02-12T12:40:13.774Z,13.09
2023-02-12T12:42:59.955Z,13.08
2023-02-12T12:45:53.227Z,13.35
2023-02-12T12:48:23.728Z,13.25
2023-02-12T12:51:23.817Z,13.25
2023-02-12T12:54:24.659Z,13.34
2023-02-12T12:57:16.896Z,13.30
2023-02-12T12:59:55.006Z,13.44
2023-02-12T13:03:05.302Z,13.48
2023-02-12T13:06:06.151Z,13.24
2023-02-12T13:08:44.209Z,13.45
2023-02-12T13:11:30.549Z,13.49
2023-02-12T13:14:11.465Z,13.54
2023-02-12T13:16:56.640Z,13.42
2023-02-12T13:19:54.181Z,13.47
2023-02-12T13:22:27.701Z,13.50
2023-02-12T13:25:01.823Z,13.60
2023-02-12T13:27:34.633Z,13.72
2023-02-12T13:30:15.701Z,13.89
2023-02-12T13:32:46.960Z,13.35
2023-02-12T13:35:20.517Z,12.95
2023-02-12T13:37:50.647Z,12.95
2023-02-12T13:40:22.864Z,12.85
2023-02-12T13:42:53.415Z,12.92
2023-02-12T13:45:25.587Z,13.00
2023-02-12T13:47:59.933Z,13.05
2023-02-12T13:50:46.089Z,12.73
2023-02-12T13:53:25.458Z,12.71
2023-02-12T13:56:17.379Z,12.60
2023-02-12T13:58:53.353Z,12.69
2023-02-12T14:01:39.670Z,12.84
2023-02-12T14:04:28.592Z,12.83
2023-02-12T14:07:06.727Z,12.78
2023-02-12T14:09:40.614Z,12.92
2023-02-12T14:12:17.096Z,12.51
2023-02-12T14:14:47.535Z,12.27
2023-02-12T14:17:33.708Z,12.42
2023-02-12T14:20:22.154Z,12.19
2023-02-12T14:22:50.489Z,12.25
2023-02-12T14:25:40.029Z,12.29
2023-02-12T14:28:20.659Z,12.23
2023-02-12T14:31:20.804Z,12.29
2023-02-12T14:33:53.480Z,12.32
2023-02-12T14:36:34.073Z,12.25
2023-02-12T14:39:26.373Z,12.53
2023-02-12T14:42:06.851Z,12.63
2023-02-12T14:44:44.474Z,12.19
2023-02-12T14:47:29.307Z,12.46
2023-02-12T14:50:02.192Z,12.18
2023-02-12T14:52:38.860Z,11.80
2023-02-12T14:55:18.061Z,11.83
2023-02-12T14:57:46.687Z,12.01
2023-02-12T15:00:17.190Z,11.61
2023-02-12T15:02:50.052Z,11.80
2023-02-12T15:05:23.515Z,11.89
2023-02-12T15:07:55.745Z,11.94
2023-02-12T15:10:27.973Z,11.86
2023-02-12T15:13:31.553Z,12.18
2023-02-12T15:16:09.351Z,12.18
2023-02-12T15:18:49.759Z,12.18
2023-02-12T15:21:27.749Z,12.09
2023-02-12T15:24:07.271Z,11.97
2023-02-12T15:26:41.587Z,12.09
2023-02-12T15:29:25.826Z,12.05
2023-02-12T15:32:05.999Z,12.16
2023-02-12T15:34:36.209Z,12.01
2023-02-12T15:37:05.252Z,11.61
2023-02-12T15:39:44.791Z,11.49
2023-02-12T15:42:30.983Z,11.51
2023-02-12T15:45:14.140Z,11.40
2023-02-12T15:47:43.354Z,11.60
2023-02-12T15:50:15.212Z,11.58
2023-02-12T15:52:44.206Z,11.44
2023-02-12T15:55:17.879Z,11.25
2023-02-12T15:57:58.291Z,10.99
2023-02-12T16:00:31.809Z,10.94
2023-02-12T16:02:59.612Z,10.81
2023-02-12T16:05:27.608Z,10.66
2023-02-12T16:07:55.576Z,10.64
2023-02-12T16:10:23.721Z,10.52
2023-02-12T16:12:51.800Z,10.50
2023-02-12T16:15:25.207Z,10.44
2023-02-12T16:17:59.763Z,10.33
2023-02-12T16:20:30.865Z,10.23
2023-02-12T16:22:59.805Z,10.20
2023-02-12T16:25:29.798Z,9.91
2023-02-12T16:28:18.614Z,9.30
2023-02-12T16:30:48.409Z,9.29
2023-02-12T16:33:52.669Z,9.27
2023-02-12T16:36:20.336Z,8.79
2023-02-12T16:38:55.364Z,8.77
2023-02-12T16:41:32.769Z,8.84
2023-02-12T16:44:00.270Z,9.09
2023-02-12T16:46:33.074Z,8.76
2023-02-12T16:49:02.427Z,8.29
2023-02-12T16:51:35.736Z,8.12
2023-02-12T16:54:05.040Z,8.55
2023-02-12T16:56:38.702Z,8.19
2023-02-12T16:59:06.376Z,7.70
2023-02-12T17:01:36.121Z,7.68
2023-02-12T17:04:09.079Z,8.15
2023-02-12T17:06:37.028Z,7.85
2023-02-12T17:09:04.539Z,7.48
2023-02-12T17:11:32.055Z,7.32
2023-02-12T17:13:59.914Z,7.11
2023-02-12T17:16:32.055Z,7.24
2023-02-12T17:19:00.574Z,6.75
2023-02-12T17:21:38.502Z,6.71
2023-02-12T17:24:21.121Z,6.70
2023-02-12T17:26:50.652Z,6.66
2023-02-12T17:29:20.340Z,6.87
2023-02-12T17:31:48.404Z,6.67
2023-02-12T17:34:16.796Z,7.11
2023-02-12T17:36:44.620Z,6.64
2023-02-12T17:39:13.565Z,6.43
2023-02-12T17:41:44.275Z,6.67
2023-02-12T17:44:14.032Z,6.26
2023-02-12T17:46:42.457Z,6.36
2023-02-12T17:49:10.293Z,6.39
2023-02-12T17:51:38.545Z,6.20
2023-02-12T17:54:06.222Z,6.23
2023-02-12T17:56:33.916Z,6.26
2023-02-12T17:59:01.890Z,6.64
2023-02-12T18:01:29.420Z,6.36
2023-02-12T18:03:58.712Z,6.16
2023-02-12T18:06:29.630Z,6.12
2023-02-12T18:08:58.977Z,6.21
2023-02-12T18:11:27.811Z,6.27
2023-02-12T18:13:57.107Z,6.21
2023-02-12T18:16:28.101Z,6.18
2023-02-12T18:18:57.124Z,6.19
2023-02-12T18:21:24.975Z,6.11
2023-02-12T18:23:53.909Z,6.16
2023-02-12T18:26:21.972Z,6.20
2023-02-12T18:28:50.077Z,6.26
2023-02-12T18:31:19.689Z,6.03
2023-02-12T18:33:47.334Z,5.94
2023-02-12T18:36:17.508Z,5.70
2023-02-12T18:38:47.372Z,5.90
2023-02-12T18:41:17.675Z,5.75
2023-02-12T18:43:45.834Z,5.77
2023-02-12T18:46:16.688Z,5.68
2023-02-12T18:48:44.904Z,5.68
2023-02-12T18:51:38.323Z,5.61
2023-02-12T18:54:08.784Z,5.47
2023-02-12T18:56:41.047Z,5.45
2023-02-12T18:59:09.295Z,5.42
2023-02-12T19:01:37.082Z,5.35
2023-02-12T19:04:07.608Z,5.27
2023-02-12T19:06:40.114Z,5.24
2023-02-12T19:09:08.579Z,5.35
2023-02-12T19:11:36.972Z,5.18
2023-02-12T19:14:04.919Z,5.26
2023-02-12T19:16:33.508Z,5.34
2023-02-12T19:19:03.022Z,5.26
2023-02-12T19:21:30.891Z,4.98
2023-02-12T19:24:00.395Z,4.84
2023-02-12T19:26:29.861Z,4.84
2023-02-12T19:28:58.128Z,4.88
2023-02-12T19:31:35.238Z,4.82
2023-02-12T19:34:05.819Z,4.77
2023-02-12T19:36:35.431Z,4.76
2023-02-12T19:39:05.885Z,4.91
2023-02-12T19:41:43.225Z,4.65
2023-02-12T19:44:18.840Z,4.68
2023-02-12T19:46:47.705Z,4.61
2023-02-12T19:49:26.244Z,4.60
2023-02-12T19:51:53.847Z,4.50
2023-02-12T19:54:22.848Z,4.80
2023-02-12T19:56:51.436Z,4.58
2023-02-12T19:59:27.226Z,4.51
2023-02-12T20:01:58.015Z,4.14
2023-02-12T20:04:25.940Z,4.31
2023-02-12T20:06:53.454Z,4.28
2023-02-12T20:09:21.913Z,4.20
2023-02-12T20:11:50.292Z,4.25
2023-02-12T20:14:18.224Z,4.29
2023-02-12T20:16:46.895Z,4.20
2023-02-12T20:19:21.077Z,4.13
2023-02-12T20:21:54.301Z,4.24
2023-02-12T20:24:27.452Z,4.19
2023-02-12T20:26:58.585Z,4.06
2023-02-12T20:29:26.455Z,4.06
2023-02-12T20:31:54.389Z,3.80
2023-02-12T20:34:22.389Z,3.98
2023-02-12T20:36:50.364Z,4.04
2023-02-12T20:39:19.649Z,4.14
2023-02-12T20:41:49.216Z,3.87
2023-02-12T20:44:20.018Z,3.92
2023-02-12T20:46:50.109Z,3.60
2023-02-12T20:49:20.175Z,3.63
2023-02-12T20:51:50.200Z,3.61
2023-02-12T20:54:18.132Z,4.07
2023-02-12T20:56:46.050Z,4.06
2023-02-12T20:59:13.627Z,3.71
2023-02-12T21:01:41.965Z,3.46
2023-02-12T21:04:12.418Z,3.60
2023-02-12T21:06:40.498Z,3.39
2023-02-12T21:09:09.830Z,3.19
2023-02-12T21:11:39.967Z,3.34
2023-02-12T21:14:21.196Z,3.55
2023-02-12T21:16:50.485Z,3.74
2023-02-12T21:19:18.827Z,3.58
2023-02-12T21:21:47.861Z,3.27
2023-02-12T21:24:18.291Z,3.26
2023-02-12T21:26:45.809Z,3.38
2023-02-12T21:29:13.747Z,3.43
2023-02-12T21:31:43.839Z,3.35
2023-02-12T21:34:18.248Z,3.33
2023-02-12T21:36:47.382Z,3.51
2023-02-12T21:39:25.019Z,3.58
2023-02-12T21:41:58.109Z,3.44
2023-02-12T21:44:26.296Z,3.45
2023-02-12T21:46:54.945Z,3.39
2023-02-12T21:49:27.626Z,3.23
2023-02-12T21:52:04.344Z,3.41
2023-02-12T21:54:31.995Z,3.41
2023-02-12T21:57:00.321Z,3.36
2023-02-12T21:59:30.686Z,3.18
2023-02-12T22:02:00.663Z,3.24
2023-02-12T22:04:29.081Z,3.01
2023-02-12T22:06:58.014Z,3.06
2023-02-12T22:09:25.918Z,3.16
2023-02-12T22:11:54.778Z,3.15
2023-02-12T22:14:22.458Z,3.12
2023-02-12T22:16:50.368Z,3.11
2023-02-12T22:19:18.946Z,3.19
2023-02-12T22:21:46.547Z,3.19
2023-02-12T22:24:15.975Z,3.19
2023-02-12T22:26:44.198Z,3.07
2023-02-12T22:29:14.287Z,3.00
2023-02-12T22:31:43.514Z,3.18
2023-02-12T22:34:14.393Z,2.97
2023-02-12T22:36:43.117Z,3.00
2023-02-12T22:39:13.112Z,2.91
2023-02-12T22:41:42.481Z,2.92
2023-02-12T22:44:12.360Z,3.24
2023-02-12T22:46:41.935Z,3.40
2023-02-12T22:49:10.144Z,3.36
2023-02-12T22:51:39.871Z,3.30
2023-02-12T22:54:12.517Z,3.40
2023-02-12T22:56:40.466Z,3.40
2023-02-12T22:59:10.135Z,3.63
2023-02-12T23:01:39.671Z,3.56
2023-02-12T23:04:07.759Z,3.61
2023-02-12T23:06:36.182Z,3.75
2023-02-12T23:09:04.887Z,3.79
2023-02-12T23:11:33.141Z,3.61
2023-02-12T23:14:01.480Z,3.86
2023-02-12T23:16:29.388Z,3.71
2023-02-12T23:18:58.701Z,3.70
2023-02-12T23:21:27.874Z,3.38
2023-02-12T23:23:56.767Z,3.46
2023-02-12T23:26:24.997Z,3.56
2023-02-12T23:28:53.170Z,3.38
2023-02-12T23:31:21.119Z,3.19
2023-02-12T23:33:48.771Z,3.26
2023-02-12T23:36:16.863Z,3.38
2023-02-12T23:38:44.848Z,3.32
2023-02-12T23:41:12.480Z,3.23
2023-02-12T23:43:40.494Z,3.22
2023-02-12T23:46:09.570Z,2.92
2023-02-12T23:48:37.282Z,2.81
2023-02-12T23:51:05.397Z,2.86
2023-02-12T23:53:34.226Z,3.07
2023-02-12T23:56:01.749Z,3.11
2023-02-12T23:58:29.482Z,3.02
